createdAt,value
2022-10-23T00:00:18.412Z,12.40
2022-10-23T00:03:08.620Z,14.10
2022-10-23T00:05:40.560Z,15.88
2022-10-23T00:08:08.155Z,13.63
2022-10-23T00:10:43.322Z,13.57
2022-10-23T00:13:12.485Z,13.88
2022-10-23T00:15:39.475Z,14.47
2022-10-23T00:18:06.475Z,12.40
2022-10-23T00:20:40.550Z,13.63
2022-10-23T00:23:07.546Z,13.70
2022-10-23T00:25:34.579Z,15.48
2022-10-23T00:28:01.866Z,14.63
2022-10-23T00:30:31.064Z,18.60
2022-10-23T00:33:00.471Z,14.35
2022-10-23T00:35:27.674Z,14.38
2022-10-23T00:37:54.589Z,13.68
2022-10-23T00:40:24.642Z,15.17
2022-10-23T00:42:51.940Z,16.33
2022-10-23T00:45:31.244Z,16.50
2022-10-23T00:48:01.916Z,17.77
2022-10-23T00:50:38.710Z,14.27
2022-10-23T00:53:09.147Z,15.33
2022-10-23T00:55:46.015Z,16.33
2022-10-23T00:58:16.898Z,18.63
2022-10-23T01:00:55.418Z,18.85
2022-10-23T01:03:29.331Z,13.52
2022-10-23T01:06:06.564Z,15.10
2022-10-23T01:08:48.071Z,17.80
2022-10-23T01:11:24.670Z,15.32
2022-10-23T01:14:06.513Z,14.10
2022-10-23T01:16:38.727Z,17.15
2022-10-23T01:19:19.601Z,15.23
2022-10-23T01:22:00.511Z,13.55
2022-10-23T01:24:33.250Z,13.88
2022-10-23T01:27:17.305Z,17.25
2022-10-23T01:29:51.520Z,14.07
2022-10-23T01:32:44.743Z,13.67
2022-10-23T01:35:19.155Z,13.55
2022-10-23T01:38:15.204Z,12.75
2022-10-23T01:40:50.143Z,11.88
2022-10-23T01:43:25.608Z,12.15
2022-10-23T01:46:07.324Z,15.77
2022-10-23T01:48:38.370Z,11.88
2022-10-23T01:51:17.574Z,13.30
2022-10-23T01:53:48.096Z,15.27
2022-10-23T01:56:20.365Z,14.07
2022-10-23T01:59:02.301Z,12.43
2022-10-23T02:01:36.487Z,13.10
2022-10-23T02:04:16.213Z,14.98
2022-10-23T02:06:43.401Z,12.18
2022-10-23T02:09:17.172Z,12.32
2022-10-23T02:12:07.567Z,15.63
2022-10-23T02:14:46.093Z,17.55
2022-10-23T02:17:33.634Z,14.07
2022-10-23T02:20:18.541Z,16.83
2022-10-23T02:23:11.241Z,15.25
2022-10-23T02:25:47.848Z,15.40
2022-10-23T02:28:22.360Z,17.70
2022-10-23T02:30:59.131Z,17.95
2022-10-23T02:33:28.883Z,15.38
2022-10-23T02:35:58.558Z,15.23
2022-10-23T02:38:42.053Z,16.53
2022-10-23T02:41:15.241Z,15.98
2022-10-23T02:44:13.225Z,14.55
2022-10-23T02:47:04.872Z,15.35
2022-10-23T02:49:52.217Z,17.10
2022-10-23T02:52:35.578Z,19.13
2022-10-23T02:55:22.356Z,17.42
2022-10-23T02:57:57.386Z,16.92
2022-10-23T03:00:25.128Z,18.35
2022-10-23T03:03:30.072Z,18.63
2022-10-23T03:05:57.206Z,17.93
2022-10-23T03:08:26.829Z,18.25
2022-10-23T03:10:53.861Z,15.73
2022-10-23T03:13:23.550Z,21.92
2022-10-23T03:15:53.414Z,16.77
2022-10-23T03:18:25.868Z,17.73
2022-10-23T03:20:52.796Z,18.30
2022-10-23T03:23:22.646Z,18.17
2022-10-23T03:25:49.688Z,22.50
2022-10-23T03:28:30.610Z,19.65
2022-10-23T03:31:02.265Z,17.50
2022-10-23T03:33:32.676Z,20.35
2022-10-23T03:36:10.298Z,16.77
2022-10-23T03:38:37.323Z,16.65
2022-10-23T03:41:05.651Z,21.40
2022-10-23T03:43:35.162Z,18.23
2022-10-23T03:46:09.351Z,19.50
2022-10-23T03:48:39.690Z,19.63
2022-10-23T03:51:06.962Z,18.25
2022-10-23T03:53:34.608Z,20.25
2022-10-23T03:56:06.876Z,20.13
2022-10-23T03:58:34.384Z,17.55
2022-10-23T04:01:01.695Z,18.52
2022-10-23T04:03:29.123Z,17.83
2022-10-23T04:05:59.202Z,22.08
2022-10-23T04:08:28.610Z,23.17
2022-10-23T04:10:58.418Z,23.60
2022-10-23T04:13:44.212Z,21.33
2022-10-23T04:16:13.993Z,18.67
2022-10-23T04:18:41.943Z,26.95
2022-10-23T04:21:26.805Z,19.50
2022-10-23T04:23:55.454Z,18.40
2022-10-23T04:26:22.925Z,22.85
2022-10-23T04:28:58.910Z,16.77
2022-10-23T04:31:28.759Z,22.13
2022-10-23T04:33:55.843Z,15.93
2022-10-23T04:36:30.456Z,19.05
2022-10-23T04:39:04.629Z,19.80
2022-10-23T04:41:38.962Z,20.40
2022-10-23T04:44:06.720Z,22.33
2022-10-23T04:46:45.125Z,19.87
2022-10-23T04:49:12.472Z,24.42
2022-10-23T04:51:54.670Z,19.35
2022-10-23T04:54:37.842Z,21.08
2022-10-23T04:57:23.075Z,22.35
2022-10-23T05:00:00.603Z,18.97
2022-10-23T05:02:30.274Z,21.77
2022-10-23T05:04:57.392Z,24.73
2022-10-23T05:07:37.889Z,24.15
2022-10-23T05:10:22.023Z,23.55
2022-10-23T05:13:03.008Z,31.20
2022-10-23T05:15:30.718Z,22.10
2022-10-23T05:18:05.280Z,22.02
2022-10-23T05:20:36.407Z,20.60
2022-10-23T05:23:11.160Z,20.75
2022-10-23T05:25:39.077Z,19.30
2022-10-23T05:28:17.844Z,24.92
2022-10-23T05:30:57.672Z,23.58
2022-10-23T05:33:29.080Z,20.90
2022-10-23T05:36:00.035Z,19.73
2022-10-23T05:38:32.420Z,20.43
2022-10-23T05:41:04.881Z,21.52
2022-10-23T05:43:37.696Z,24.00
2022-10-23T05:46:42.437Z,19.40
2022-10-23T05:49:44.958Z,18.20
2022-10-23T05:52:32.141Z,17.87
2022-10-23T05:55:05.337Z,19.80
2022-10-23T05:57:52.122Z,19.88
2022-10-23T06:00:29.619Z,21.55
2022-10-23T06:03:16.643Z,25.02
2022-10-23T06:05:53.418Z,23.10
2022-10-23T06:08:24.422Z,21.92
2022-10-23T06:10:51.992Z,22.05
2022-10-23T06:13:26.179Z,20.42
2022-10-23T06:15:53.659Z,21.67
2022-10-23T06:18:32.399Z,18.30
2022-10-23T06:21:07.559Z,19.17
2022-10-23T06:23:39.580Z,19.63
2022-10-23T06:26:35.498Z,20.92
2022-10-23T06:29:11.594Z,23.08
2022-10-23T06:31:49.490Z,22.97
2022-10-23T06:34:20.014Z,24.65
2022-10-23T06:36:49.725Z,21.90
2022-10-23T06:39:48.199Z,18.50
2022-10-23T06:42:19.414Z,24.52
2022-10-23T06:44:52.264Z,21.53
2022-10-23T06:47:42.015Z,23.42
2022-10-23T06:50:31.242Z,20.40
2022-10-23T06:53:06.593Z,22.77
2022-10-23T06:58:29.614Z,19.83
2022-10-23T07:01:13.667Z,24.35
2022-10-23T07:03:45.664Z,20.58
2022-10-23T07:06:20.514Z,22.98
2022-10-23T07:08:47.882Z,25.70
2022-10-23T07:11:35.901Z,22.23
2022-10-23T07:14:02.926Z,22.45
2022-10-23T07:16:37.239Z,23.30
2022-10-23T07:19:07.825Z,25.05
2022-10-23T07:21:56.067Z,27.13
2022-10-23T07:24:38.823Z,24.20
2022-10-23T07:27:22.590Z,23.75
2022-10-23T07:29:55.812Z,30.95
2022-10-23T07:32:30.512Z,23.60
2022-10-23T07:35:36.999Z,25.95
2022-10-23T07:38:22.695Z,25.30
2022-10-23T07:41:01.966Z,27.25
2022-10-23T07:43:54.042Z,23.20
2022-10-23T07:46:21.143Z,28.92
2022-10-23T07:48:48.706Z,25.88
2022-10-23T07:51:21.251Z,25.80
2022-10-23T07:53:54.912Z,29.42
2022-10-23T07:56:50.560Z,26.77
2022-10-23T07:59:26.366Z,28.30
2022-10-23T08:01:59.907Z,24.55
2022-10-23T08:04:44.786Z,24.90
2022-10-23T08:07:34.515Z,31.95
2022-10-23T08:10:01.651Z,30.67
2022-10-23T08:12:38.936Z,29.92
2022-10-23T08:15:09.041Z,32.95
2022-10-23T08:17:48.869Z,29.37
2022-10-23T08:20:44.440Z,28.58
2022-10-23T08:23:12.697Z,34.85
2022-10-23T08:25:41.068Z,29.17
2022-10-23T08:28:09.849Z,34.92
2022-10-23T08:30:46.717Z,34.30
2022-10-23T08:33:22.178Z,30.67
2022-10-23T08:35:49.687Z,35.78
2022-10-23T08:38:30.367Z,33.97
2022-10-23T08:41:01.632Z,32.60
2022-10-23T08:43:50.598Z,36.37
2022-10-23T08:46:38.705Z,37.53
2022-10-23T08:49:22.774Z,33.15
2022-10-23T08:52:08.068Z,30.17
2022-10-23T08:55:00.631Z,34.08
2022-10-23T08:57:45.600Z,30.57
2022-10-23T09:00:18.282Z,30.63
2022-10-23T09:02:53.586Z,34.70
2022-10-23T09:06:18.906Z,36.88
2022-10-23T09:09:15.361Z,32.50
2022-10-23T09:11:52.424Z,34.93
2022-10-23T09:14:49.043Z,31.30
2022-10-23T09:17:31.281Z,33.55
2022-10-23T09:20:22.751Z,36.97
2022-10-23T09:22:57.476Z,33.08
2022-10-23T09:25:32.736Z,36.07
2022-10-23T09:28:05.215Z,32.08
2022-10-23T09:30:42.064Z,34.28
2022-10-23T09:33:18.234Z,34.10
2022-10-23T09:36:12.589Z,33.60
2022-10-23T09:38:45.733Z,37.27
2022-10-23T09:41:38.092Z,38.58
2022-10-23T09:44:07.877Z,41.92
2022-10-23T09:47:12.308Z,31.42
2022-10-23T09:49:46.905Z,39.17
2022-10-23T09:52:14.062Z,34.33
2022-10-23T09:54:44.213Z,38.78
2022-10-23T09:57:23.207Z,39.08
2022-10-23T10:00:16.687Z,39.80
2022-10-23T10:02:55.434Z,41.17
2022-10-23T10:05:44.043Z,33.90
2022-10-23T10:08:39.437Z,40.28
2022-10-23T10:11:09.375Z,42.25
2022-10-23T10:14:09.759Z,38.75
2022-10-23T10:17:08.633Z,34.13
2022-10-23T10:20:25.777Z,40.40
2022-10-23T10:23:29.417Z,39.25
2022-10-23T10:27:21.307Z,36.85
2022-10-23T10:29:54.172Z,39.08
2022-10-23T10:32:33.719Z,36.35
2022-10-23T10:35:12.830Z,37.20
2022-10-23T10:37:57.474Z,39.60
2022-10-23T10:40:33.325Z,34.05
2022-10-23T10:43:24.756Z,36.60
2022-10-23T10:46:05.440Z,33.85
2022-10-23T10:48:41.312Z,30.10
2022-10-23T10:51:57.599Z,30.20
2022-10-23T10:54:57.745Z,37.40
2022-10-23T10:57:49.645Z,30.85
2022-10-23T11:00:24.578Z,33.72
2022-10-23T11:02:57.492Z,36.73
2022-10-23T11:05:46.783Z,32.85
2022-10-23T11:08:24.560Z,37.97
2022-10-23T11:11:00.492Z,32.50
2022-10-23T11:13:40.918Z,33.42
2022-10-23T11:16:26.902Z,34.00
2022-10-23T11:19:22.015Z,38.42
2022-10-23T11:21:51.916Z,36.95
2022-10-23T11:25:04.141Z,34.78
2022-10-23T11:28:10.766Z,31.83
2022-10-23T11:31:21.482Z,32.87
2022-10-23T11:34:14.639Z,33.10
2022-10-23T11:36:50.467Z,40.03
2022-10-23T11:42:11.386Z,33.65
2022-10-23T11:44:51.906Z,34.33
2022-10-23T11:47:40.845Z,33.60
2022-10-23T11:50:07.834Z,32.50
2022-10-23T11:53:13.560Z,34.30
2022-10-23T11:56:16.832Z,34.58
2022-10-23T11:58:49.612Z,31.60
2022-10-23T12:01:19.647Z,31.20
2022-10-23T12:03:55.994Z,34.83
2022-10-23T12:06:32.104Z,32.50
2022-10-23T12:09:06.880Z,32.38
2022-10-23T12:12:20.909Z,30.33
2022-10-23T12:14:50.435Z,34.10
2022-10-23T12:17:23.414Z,34.60
2022-10-23T12:20:04.201Z,33.05
2022-10-23T12:23:00.339Z,36.83
2022-10-23T12:25:35.725Z,40.80
2022-10-23T12:28:26.567Z,36.70
2022-10-23T12:31:17.746Z,36.22
2022-10-23T12:34:04.728Z,37.25
2022-10-23T12:37:09.534Z,37.05
2022-10-23T12:39:40.475Z,37.57
2022-10-23T12:42:17.555Z,37.75
2022-10-23T12:44:45.742Z,34.47
2022-10-23T12:47:21.578Z,37.05
2022-10-23T12:49:53.380Z,43.10
2022-10-23T12:52:21.483Z,37.60
2022-10-23T12:54:58.686Z,35.08
2022-10-23T12:57:32.114Z,34.85
2022-10-23T13:00:06.301Z,40.22
2022-10-23T13:02:35.831Z,35.20
2022-10-23T13:05:07.757Z,37.77
2022-10-23T13:07:47.249Z,40.40
2022-10-23T13:10:22.072Z,36.13
2022-10-23T13:13:01.957Z,43.28
2022-10-23T13:15:41.142Z,40.42
2022-10-23T13:18:11.064Z,43.27
2022-10-23T13:20:47.924Z,40.22
2022-10-23T13:23:34.692Z,39.22
2022-10-23T13:26:04.186Z,38.97
2022-10-23T13:28:45.731Z,42.70
2022-10-23T13:31:15.679Z,44.50
2022-10-23T13:33:51.036Z,40.03
2022-10-23T13:36:18.629Z,49.13
2022-10-23T13:39:04.524Z,42.03
2022-10-23T13:41:46.701Z,42.78
2022-10-23T13:44:25.665Z,39.40
2022-10-23T13:46:55.823Z,39.28
2022-10-23T13:49:30.045Z,41.88
2022-10-23T13:52:05.956Z,40.45
2022-10-23T13:54:33.167Z,40.58
2022-10-23T13:57:03.377Z,38.60
2022-10-23T13:59:33.515Z,41.47
2022-10-23T14:02:05.067Z,37.95
2022-10-23T14:04:34.380Z,37.20
2022-10-23T14:07:09.105Z,35.85
2022-10-23T14:09:36.123Z,37.03
2022-10-23T14:12:18.245Z,29.50
2022-10-23T14:14:51.152Z,33.90
2022-10-23T14:17:19.256Z,30.02
2022-10-23T14:19:46.668Z,27.42
2022-10-23T14:22:18.318Z,32.47
2022-10-23T14:24:47.601Z,25.27
2022-10-23T14:27:14.680Z,25.42
2022-10-23T14:29:43.920Z,33.38
2022-10-23T14:32:14.234Z,26.55
2022-10-23T14:34:44.036Z,27.70
2022-10-23T14:37:14.326Z,28.20
2022-10-23T14:39:48.911Z,27.48
2022-10-23T14:42:35.656Z,28.90
2022-10-23T14:45:05.701Z,28.15
2022-10-23T14:47:40.549Z,30.83
2022-10-23T14:50:11.618Z,25.40
2022-10-23T14:52:41.542Z,24.58
2022-10-23T14:55:09.146Z,26.35
2022-10-23T14:57:36.175Z,24.17
2022-10-23T15:00:04.281Z,23.37
2022-10-23T15:02:38.817Z,29.13
2022-10-23T15:05:06.355Z,26.20
2022-10-23T15:07:42.427Z,25.38
2022-10-23T15:10:10.788Z,22.63
2022-10-23T15:12:39.398Z,29.37
2022-10-23T15:15:07.586Z,25.08
2022-10-23T15:17:35.920Z,28.20
2022-10-23T15:20:03.722Z,28.33
2022-10-23T15:22:31.064Z,28.10
2022-10-23T15:24:57.961Z,26.20
2022-10-23T15:27:24.912Z,29.63
2022-10-23T15:29:53.993Z,27.02
2022-10-23T15:32:27.963Z,25.40
2022-10-23T15:35:05.469Z,27.70
2022-10-23T15:37:32.431Z,30.83
2022-10-23T15:40:01.432Z,24.33
2022-10-23T15:42:39.501Z,27.40
2022-10-23T15:45:10.197Z,26.38
2022-10-23T15:47:52.933Z,25.55
2022-10-23T15:50:22.624Z,28.73
2022-10-23T15:52:51.970Z,28.38
2022-10-23T15:55:33.682Z,27.95
2022-10-23T15:58:05.678Z,29.55
2022-10-23T16:00:38.530Z,29.33
2022-10-23T16:03:07.923Z,28.97
2022-10-23T16:05:36.993Z,33.75
2022-10-23T16:08:06.370Z,31.20
2022-10-23T16:10:33.583Z,27.20
2022-10-23T16:13:00.715Z,25.92
2022-10-23T16:15:29.858Z,25.10
2022-10-23T16:18:06.750Z,32.00
2022-10-23T16:20:33.785Z,28.75
2022-10-23T16:23:06.768Z,25.00
2022-10-23T16:25:40.178Z,26.77
2022-10-23T16:28:09.736Z,35.47
2022-10-23T16:30:43.631Z,30.52
2022-10-23T16:33:13.690Z,30.60
2022-10-23T16:35:42.839Z,27.27
2022-10-23T16:38:16.638Z,26.45
2022-10-23T16:40:53.303Z,22.97
2022-10-23T16:43:52.989Z,27.67
2022-10-23T16:46:42.576Z,26.85
2022-10-23T16:49:09.789Z,25.95
2022-10-23T16:51:39.971Z,29.80
2022-10-23T16:54:18.182Z,24.70
2022-10-23T16:56:54.430Z,24.63
2022-10-23T16:59:23.145Z,31.30
2022-10-23T17:01:53.573Z,29.40
2022-10-23T17:04:20.931Z,25.02
2022-10-23T17:06:47.955Z,30.30
2022-10-23T17:09:15.159Z,23.30
2022-10-23T17:11:45.239Z,22.52
2022-10-23T17:14:21.211Z,26.20
2022-10-23T17:16:53.336Z,24.90
2022-10-23T17:19:44.519Z,26.27
2022-10-23T17:22:20.572Z,26.00
2022-10-23T17:24:50.241Z,25.08
2022-10-23T17:27:22.332Z,24.80
2022-10-23T17:29:49.318Z,27.95
2022-10-23T17:32:17.037Z,24.27
2022-10-23T17:34:48.094Z,27.02
2022-10-23T17:37:20.342Z,26.27
2022-10-23T17:39:56.350Z,20.40
2022-10-23T17:42:43.379Z,20.65
2022-10-23T17:45:11.000Z,19.23
2022-10-23T17:47:40.447Z,19.00
2022-10-23T17:50:13.223Z,23.50
2022-10-23T17:52:40.857Z,18.90
2022-10-23T17:55:11.181Z,20.75
2022-10-23T17:57:38.559Z,18.13
2022-10-23T18:00:08.237Z,19.83
2022-10-23T18:02:42.243Z,18.65
2022-10-23T18:05:09.642Z,18.30
2022-10-23T18:07:36.636Z,22.27
2022-10-23T18:10:08.250Z,18.40
2022-10-23T18:12:38.752Z,14.10
2022-10-23T18:15:14.241Z,18.80
2022-10-23T18:17:44.289Z,17.70
2022-10-23T18:20:30.007Z,16.48
2022-10-23T18:23:03.436Z,15.07
2022-10-23T18:25:56.769Z,15.98
2022-10-23T18:29:09.572Z,17.63
2022-10-23T18:32:27.969Z,17.77
2022-10-23T18:34:57.614Z,19.63
2022-10-23T18:37:31.756Z,18.87
2022-10-23T18:40:00.333Z,18.85
2022-10-23T18:42:30.195Z,17.15
2022-10-23T18:44:58.409Z,17.70
2022-10-23T18:47:26.367Z,81.20
2022-10-23T18:49:53.440Z,27.13
2022-10-23T18:52:24.002Z,19.25
2022-10-23T18:55:05.119Z,16.67
2022-10-23T18:57:33.782Z,16.48
2022-10-23T19:00:10.430Z,14.23
2022-10-23T19:02:38.827Z,20.70
2022-10-23T19:05:07.766Z,14.27
2022-10-23T19:07:35.679Z,13.98
2022-10-23T19:10:06.831Z,14.57
2022-10-23T19:12:33.896Z,15.07
2022-10-23T19:15:06.157Z,14.10
2022-10-23T19:17:33.334Z,14.85
2022-10-23T19:20:11.321Z,13.40
2022-10-23T19:22:45.136Z,14.43
2022-10-23T19:25:19.524Z,14.52
2022-10-23T19:27:57.154Z,15.07
2022-10-23T19:30:25.055Z,12.77
2022-10-23T19:32:52.620Z,12.13
2022-10-23T19:35:21.069Z,14.88
2022-10-23T19:37:50.567Z,23.55
2022-10-23T19:40:20.120Z,19.00
2022-10-23T19:42:48.255Z,11.90
2022-10-23T19:45:17.862Z,14.02
2022-10-23T19:47:48.523Z,15.85
2022-10-23T19:50:24.374Z,17.05
2022-10-23T19:52:51.479Z,17.07
2022-10-23T19:55:18.398Z,13.30
2022-10-23T19:57:45.676Z,13.20
2022-10-23T20:00:21.180Z,13.77
2022-10-23T20:02:50.202Z,12.13
2022-10-23T20:05:21.971Z,15.07
2022-10-23T20:07:51.562Z,14.57
2022-10-23T20:10:18.947Z,11.75
2022-10-23T20:12:57.095Z,12.55
2022-10-23T20:15:42.729Z,11.07
2022-10-23T20:18:10.029Z,13.47
2022-10-23T20:20:44.541Z,11.45
2022-10-23T20:23:17.329Z,12.65
2022-10-23T20:31:23.674Z,11.37
2022-10-23T20:33:55.050Z,11.07
2022-10-23T20:36:32.843Z,11.00
2022-10-23T20:39:05.720Z,13.88
2022-10-23T20:41:33.893Z,12.52
2022-10-23T20:44:01.375Z,22.43
2022-10-23T20:49:14.007Z,12.82
2022-10-23T20:51:44.012Z,11.52
2022-10-23T20:54:13.631Z,11.95
2022-10-23T20:59:28.259Z,12.57
2022-10-23T21:01:56.687Z,12.80
2022-10-23T21:04:30.393Z,13.57
2022-10-23T21:07:09.920Z,13.48
2022-10-23T21:09:40.185Z,12.50
2022-10-23T21:12:12.878Z,12.32
2022-10-23T21:14:39.895Z,15.85
2022-10-23T21:17:08.663Z,12.93
2022-10-23T21:19:35.931Z,12.30
2022-10-23T21:24:58.992Z,12.85
2022-10-23T21:30:24.972Z,13.10
2022-10-23T21:32:51.852Z,12.93
2022-10-23T21:35:18.852Z,12.33
2022-10-23T21:37:48.224Z,12.90
2022-10-23T21:40:15.318Z,12.48
2022-10-23T21:45:40.375Z,13.52
2022-10-23T21:48:14.759Z,14.87
2022-10-23T21:53:38.812Z,13.52
2022-10-23T21:56:05.800Z,12.60
2022-10-23T21:58:35.008Z,14.85
2022-10-23T22:01:02.180Z,13.63
2022-10-23T22:03:36.468Z,19.08
2022-10-23T22:06:03.585Z,15.75
2022-10-23T22:08:31.923Z,16.38
2022-10-23T22:13:46.494Z,17.23
2022-10-23T22:19:02.303Z,15.45
2022-10-23T22:24:17.783Z,18.05
2022-10-23T22:26:50.670Z,19.43
2022-10-23T22:29:27.960Z,17.00
2022-10-23T22:31:57.188Z,16.92
2022-10-23T22:42:43.400Z,17.30
2022-10-23T22:45:12.859Z,14.50
2022-10-23T22:50:24.288Z,16.75
2022-10-23T22:52:52.284Z,17.00
2022-10-23T22:55:19.264Z,19.17
2022-10-23T23:00:48.505Z,15.35
2022-10-23T23:03:18.373Z,16.33
2022-10-23T23:05:47.780Z,17.17
2022-10-23T23:08:19.850Z,15.18
2022-10-23T23:10:54.050Z,15.90
2022-10-23T23:13:21.172Z,14.38
2022-10-23T23:15:50.321Z,14.30
2022-10-23T23:18:17.423Z,14.97
2022-10-23T23:20:51.827Z,15.82
2022-10-23T23:23:19.216Z,16.67
2022-10-23T23:25:59.572Z,14.52
2022-10-23T23:28:26.735Z,15.55
2022-10-23T23:31:06.955Z,13.30
2022-10-23T23:33:34.846Z,13.75
2022-10-23T23:38:53.744Z,13.15
2022-10-23T23:41:22.006Z,12.70
2022-10-23T23:43:49.538Z,12.87
2022-10-23T23:51:53.017Z,10.73
2022-10-23T23:54:23.108Z,10.02
2022-10-23T23:56:50.203Z,12.77
